Agropecuaria Castanhais Airport


Codes: SNYH/ITI
Name: Agropecuaria Castanhais Airport
City: Cumaru Do Norte
Country: Brazil
Elevation: 1096 ft.

Photos at Agropecuaria Castanhais Airport


   Photos courtesy of SpottingLog. You can add your own sightings and photos by signing up for a free trial today.



No photos found.

Weather at Agropecuaria Castanhais Airport


Time (UTC)DescriptionTempratureWindCloud coverageVisibilityPressureHumidity
13-Jun-2024 03:00Clear Sky23°C0 mph, NE3%10000m1013hPa54%
13-Jun-2024 06:00Clear Sky21°C0 mph, SE2%10000m1013hPa60%
13-Jun-2024 09:00Clear Sky19°C2 mph, S0%10000m1013hPa61%
13-Jun-2024 12:00Clear Sky27°C2 mph, E0%10000m1014hPa40%
13-Jun-2024 15:00Clear Sky32°C7 mph, E0%10000m1014hPa26%
13-Jun-2024 18:00Clear Sky33°C4 mph, E0%10000m1010hPa25%
13-Jun-2024 21:00Clear Sky27°C2 mph, NE0%10000m1011hPa47%
14-Jun-2024 00:00Clear Sky24°C2 mph, NE0%10000m1013hPa51%
14-Jun-2024 03:00Clear Sky22°C0 mph, E0%10000m1013hPa59%
14-Jun-2024 06:00Clear Sky21°C0 mph, S0%10000m1012hPa65%
14-Jun-2024 09:00Clear Sky20°C2 mph, E0%10000m1013hPa69%
14-Jun-2024 12:00Clear Sky28°C2 mph, E0%10000m1015hPa46%
14-Jun-2024 15:00Clear Sky33°C7 mph, E0%10000m1013hPa33%
14-Jun-2024 18:00Clear Sky34°C7 mph, E0%10000m1010hPa27%
14-Jun-2024 21:00Clear Sky27°C2 mph, E0%10000m1011hPa47%
15-Jun-2024 00:00Clear Sky24°C2 mph, SE0%10000m1013hPa54%
15-Jun-2024 03:00Clear Sky23°C0 mph, E0%10000m1013hPa56%
15-Jun-2024 06:00Few Clouds23°C2 mph, E14%10000m1012hPa56%
15-Jun-2024 09:00Clear Sky21°C2 mph, E4%10000m1013hPa62%
15-Jun-2024 12:00Clear Sky28°C4 mph, E2%10000m1016hPa49%
15-Jun-2024 15:00Clear Sky32°C7 mph, E0%10000m1014hPa37%
15-Jun-2024 18:00Few Clouds34°C4 mph, E12%10000m1011hPa32%
15-Jun-2024 21:00Overcast Clouds29°C2 mph, SE92%10000m1011hPa46%
16-Jun-2024 00:00Broken Clouds25°C2 mph, E58%10000m1013hPa51%
16-Jun-2024 03:00Clear Sky24°C2 mph, SE0%10000m1013hPa51%
16-Jun-2024 06:00Clear Sky22°C2 mph, SE2%10000m1011hPa56%
16-Jun-2024 09:00Clear Sky20°C2 mph, SE6%10000m1013hPa63%
16-Jun-2024 12:00Clear Sky27°C4 mph, E6%10000m1014hPa37%
16-Jun-2024 15:00Scattered Clouds33°C7 mph, E30%10000m1013hPa25%
16-Jun-2024 18:00Few Clouds34°C4 mph, E18%10000m1010hPa22%
16-Jun-2024 21:00Clear Sky27°C2 mph, E6%10000m1010hPa42%
17-Jun-2024 00:00Clear Sky23°C2 mph, SE3%10000m1012hPa47%
17-Jun-2024 03:00Clear Sky22°C0 mph, SE4%10000m1012hPa52%
17-Jun-2024 06:00Clear Sky20°C0 mph, NW3%10000m1011hPa56%
17-Jun-2024 09:00Clear Sky19°C2 mph, S0%10000m1011hPa59%
17-Jun-2024 12:00Clear Sky27°C2 mph, E0%10000m1013hPa40%
17-Jun-2024 15:00Clear Sky33°C4 mph, E0%10000m1012hPa27%
17-Jun-2024 18:00Clear Sky34°C4 mph, E0%10000m1008hPa26%
17-Jun-2024 21:00Clear Sky27°C2 mph, E1%10000m1009hPa45%
18-Jun-2024 00:00Clear Sky25°C2 mph, NE1%10000m1010hPa50%